Christos Xxxiv — SVA6643 — position and weather

sailwx.info

Track history (hours):
 
Tides and Currents Weather Stations Pressure Air Temp Water Temp Dewpoint Dewpoint Depression Visibility Wind Speed Wind Dir Waves Ship Positions

Christos Xxxiv

Last reported at 2017-Nov-24 08:11 UTC. Time now 2017-Nov-25 02:09 UTC.
Position N 37°57' E 023°34'.

Length 37 m; draft 5.1 m.

Type: Tug. MMSI: 241398000.

Date/timePositionNaut miles runAvg speedWind from/ knotsBaromVisibWave heightAir tempDewpointWater temp
2017-Nov-24 08:11N 37°57' E 023°34'0 2.4
2017-Nov-24 08:00N 37°57' E 023°33'4 8.8
2017-Nov-24 07:30N 38°01' E 023°36'0 0.0
2017-Nov-24 07:00N 38°01' E 023°36'0 0.0
2017-Nov-24 06:30N 38°01' E 023°36'0 0.0
2017-Nov-24 06:00N 38°01' E 023°36'0 0.0
2017-Nov-24 05:30N 38°01' E 023°36'0 0.0
2017-Nov-24 05:00N 38°01' E 023°36'0 0.0
2017-Nov-24 04:30N 38°01' E 023°36'0 0.0
2017-Nov-24 04:00N 38°01' E 023°36'0 0.0
2017-Nov-24 03:30N 38°01' E 023°36'0 0.0
2017-Nov-24 03:00N 38°01' E 023°36'0 0.0
2017-Nov-24 02:30N 38°01' E 023°36'0 0.0
2017-Nov-24 02:00N 38°01' E 023°36'0 0.0
2017-Nov-24 01:30N 38°01' E 023°36'0 0.0
2017-Nov-24 01:00N 38°01' E 023°36'0 0.0
2017-Nov-24 00:30N 38°01' E 023°36'0 0.0
2017-Nov-24 00:00N 38°01' E 023°36'0 0.0
2017-Nov-23 23:30N 38°01' E 023°36'0 0.0
2017-Nov-23 23:00N 38°01' E 023°36'0 0.0
2017-Nov-23 22:30N 38°01' E 023°36'0 0.0
2017-Nov-23 22:00N 38°01' E 023°36'0 0.0
2017-Nov-23 21:30N 38°01' E 023°36'0 0.0
2017-Nov-23 21:00N 38°01' E 023°36'0 0.0
2017-Nov-23 20:30N 38°01' E 023°36'0 0.0
2017-Nov-23 20:00N 38°01' E 023°36'0 0.0
2017-Nov-23 19:30N 38°01' E 023°36'0 0.0
2017-Nov-23 19:00N 38°01' E 023°36'0 0.0
2017-Nov-23 18:30N 38°01' E 023°36'0 0.0
2017-Nov-23 18:00N 38°01' E 023°36'0 0.0
2017-Nov-23 17:30N 38°01' E 023°36'0 0.0
2017-Nov-23 17:01N 38°01' E 023°36'0 0.0
2017-Nov-23 16:30N 38°01' E 023°36'0 0.0
2017-Nov-23 16:00N 38°01' E 023°36'0 0.0
2017-Nov-23 15:30N 38°01' E 023°36'0 0.0
2017-Nov-23 15:00N 38°01' E 023°36'0 0.0
2017-Nov-23 14:30N 38°01' E 023°36'0 0.0
2017-Nov-23 14:00N 38°01' E 023°36'0 0.0
2017-Nov-23 13:30N 38°01' E 023°36'0 0.0
2017-Nov-23 13:00N 38°01' E 023°36'0 0.0
2017-Nov-23 12:30N 38°01' E 023°36'0 0.0
2017-Nov-23 12:00N 38°01' E 023°36'0 0.0
2017-Nov-23 11:30N 38°01' E 023°36'0 0.0
2017-Nov-23 11:00N 38°01' E 023°36'0 0.0
2017-Nov-23 10:30N 38°01' E 023°36'0 0.0
2017-Nov-23 10:00N 38°01' E 023°36'0 0.0
2017-Nov-23 09:30N 38°01' E 023°36'0 0.0
2017-Nov-23 08:57N 38°01' E 023°36'0 0.0
2017-Nov-23 08:30N 38°01' E 023°36'0 0.0
2017-Nov-23 08:00N 38°01' E 023°36'0 0.0
2017-Nov-23 07:30N 38°01' E 023°36'0 0.0
2017-Nov-23 07:00N 38°01' E 023°36'0 0.0
2017-Nov-23 06:30N 38°01' E 023°36'0 0.0
2017-Nov-23 05:59N 38°01' E 023°36'0 0.0
2017-Nov-23 05:30N 38°01' E 023°35'0 0.0
2017-Nov-23 05:00N 38°01' E 023°36'0 0.0
2017-Nov-23 03:44N 38°01' E 023°36'0 0.0
2017-Nov-23 03:30N 38°01' E 023°36'0 0.0
2017-Nov-23 02:59N 38°01' E 023°36'0 0.0
2017-Nov-23 02:31N 38°01' E 023°36'0 0.0
2017-Nov-23 02:00N 38°01' E 023°36'0 0.0
2017-Nov-23 01:31N 38°01' E 023°36'0 0.0
2017-Nov-23 00:34N 38°01' E 023°36'0 0.1
2017-Nov-23 00:30N 38°01' E 023°36'0 0.0
2017-Nov-23 00:00N 38°01' E 023°35'0 0.0
2017-Nov-22 23:30N 38°01' E 023°36'0 0.0
2017-Nov-22 23:00N 38°01' E 023°36'0 0.0
2017-Nov-22 22:27N 38°01' E 023°36'0 0.0
2017-Nov-22 22:00N 38°01' E 023°36'0 0.0
2017-Nov-22 21:30N 38°01' E 023°36'0 0.0
2017-Nov-22 21:00N 38°01' E 023°36'0 0.0
2017-Nov-22 20:30N 38°01' E 023°36'0 0.0
2017-Nov-22 20:00N 38°01' E 023°36'0 0.0
2017-Nov-22 19:31N 38°01' E 023°36'  
2017-Nov-18 23:09N 37°58' E 023°33'0 0.0
2017-Nov-18 23:00N 37°58' E 023°33'2 3.8
2017-Nov-18 22:30N 37°57' E 023°36'1 2.2
2017-Nov-18 22:00N 37°56' E 023°36'3 5.3
2017-Nov-18 21:30N 37°58' E 023°33'0 0.0
2017-Nov-18 21:00N 37°58' E 023°33'0 0.0
2017-Nov-18 20:30N 37°58' E 023°33'0 0.0
2017-Nov-18 20:00N 37°58' E 023°33'0 0.0
2017-Nov-18 19:30N 37°58' E 023°33'0 0.0
2017-Nov-18 19:00N 37°58' E 023°33'0 0.0
2017-Nov-18 18:30N 37°58' E 023°33'0 0.0
2017-Nov-18 18:00N 37°58' E 023°33'0 0.0
2017-Nov-18 17:30N 37°58' E 023°33'0 0.0
2017-Nov-18 17:00N 37°58' E 023°33'0 0.0
2017-Nov-18 16:30N 37°58' E 023°33'0 0.0
2017-Nov-18 16:01N 37°58' E 023°33'0 0.0
2017-Nov-18 15:30N 37°58' E 023°33'0 0.0
2017-Nov-18 15:00N 37°58' E 023°33'0 0.0
2017-Nov-18 14:30N 37°58' E 023°33'0 0.0
2017-Nov-18 14:00N 37°58' E 023°33'0 0.0
2017-Nov-18 13:30N 37°58' E 023°33'0 0.0
2017-Nov-18 13:00N 37°58' E 023°33'0 0.0
2017-Nov-18 12:30N 37°58' E 023°33'0 0.0
2017-Nov-18 12:00N 37°58' E 023°33'0 0.0
2017-Nov-18 11:30N 37°58' E 023°33'0 0.0
2017-Nov-18 11:00N 37°58' E 023°33'0 0.1
2017-Nov-18 10:29N 37°58' E 023°33'0 0.7
2017-Nov-18 10:00N 37°58' E 023°34'0 0.0
2017-Nov-18 09:30N 37°58' E 023°34'1 1.5
2017-Nov-18 09:00N 37°58' E 023°33'4 8.7
2017-Nov-18 08:30N 38°01' E 023°36'2 3.0
2017-Nov-18 08:00N 38°01' E 023°34'1 1.9
2017-Nov-18 07:30N 38°00' E 023°33'2 4.9
2017-Nov-18 07:00N 37°58' E 023°33'0 0.0
2017-Nov-18 06:30N 37°58' E 023°33'0 0.0
2017-Nov-18 06:00N 37°58' E 023°33'0 0.0
2017-Nov-18 05:28N 37°58' E 023°33'0 0.0
2017-Nov-18 04:59N 37°58' E 023°33'0 0.0
2017-Nov-18 04:28N 37°58' E 023°33'0 0.0
2017-Nov-16 12:14N 37°58' E 023°33'0 0.0
2017-Nov-16 12:00N 37°58' E 023°33'0 0.0
2017-Nov-16 11:30N 37°58' E 023°33'0 0.0
2017-Nov-16 11:00N 37°58' E 023°33'0 0.0
2017-Nov-16 10:31N 37°58' E 023°33'0 0.0
2017-Nov-16 10:00N 37°58' E 023°33'0 0.0
2017-Nov-16 09:30N 37°58' E 023°33'0 0.0
2017-Nov-16 09:00N 37°58' E 023°33'0 0.0
2017-Nov-16 08:30N 37°58' E 023°33'0 0.0
2017-Nov-16 08:00N 37°58' E 023°33'0 0.5
2017-Nov-16 07:30N 37°57' E 023°33'0 0.5
2017-Nov-16 07:00N 37°58' E 023°33'0 0.0
2017-Nov-16 06:30N 37°58' E 023°33'0 0.0
2017-Nov-15 10:42N 37°58' E 023°33'0 0.0
2017-Nov-15 10:30N 37°58' E 023°33'2 4.1
2017-Nov-15 10:00N 37°57' E 023°36'0 0.2
2017-Nov-15 09:30N 37°57' E 023°36'0 0.8
2017-Nov-15 09:00N 37°57' E 023°36'2 3.6
2017-Nov-15 08:30N 37°57' E 023°33'0 0.1
2017-Nov-15 08:00N 37°57' E 023°33'0 0.4
2017-Nov-15 07:30N 37°58' E 023°33'0 0.0
2017-Nov-15 07:00N 37°58' E 023°33'0 0.0
2017-Nov-15 06:30N 37°58' E 023°33'0 0.0
2017-Nov-15 06:00N 37°58' E 023°33'1 2.9
2017-Nov-15 05:30N 37°57' E 023°35'0 0.4
2017-Nov-15 05:00N 37°57' E 023°35'0 0.8
2017-Nov-15 04:30N 37°57' E 023°35'1 2.3
2017-Nov-15 04:00N 37°58' E 023°33'0 0.0
2017-Nov-14 10:22N 37°58' E 023°33'1 2.1
2017-Nov-14 10:00N 37°57' E 023°34'1 1.5
2017-Nov-14 09:30N 37°57' E 023°35'1 2.6
2017-Nov-14 09:01N 37°56' E 023°35'2 3.8
2017-Nov-14 08:30N 37°58' E 023°33'  
Track history (hours):
 
Tides and Currents Weather Stations Pressure Air Temp Water Temp Dewpoint Dewpoint Depression Visibility Wind Speed Wind Dir Waves Ship Positions

Christos Xxxiv

Last reported at 2017-Nov-24 08:11 UTC. Time now 2017-Nov-25 02:09 UTC.
Position N 37°57' E 023°34'.

Length 37 m; draft 5.1 m.

Type: Tug. MMSI: 241398000.

Date/timePositionNaut miles runAvg speedWind from/ knotsBaromVisibWave heightAir tempDewpointWater temp
2017-Nov-24 08:11N 37°57' E 023°34'0 2.4
2017-Nov-24 08:00N 37°57' E 023°33'4 8.8
2017-Nov-24 07:30N 38°01' E 023°36'0 0.0
2017-Nov-24 07:00N 38°01' E 023°36'0 0.0
2017-Nov-24 06:30N 38°01' E 023°36'0 0.0
2017-Nov-24 06:00N 38°01' E 023°36'0 0.0
2017-Nov-24 05:30N 38°01' E 023°36'0 0.0
2017-Nov-24 05:00N 38°01' E 023°36'0 0.0
2017-Nov-24 04:30N 38°01' E 023°36'0 0.0
2017-Nov-24 04:00N 38°01' E 023°36'0 0.0
2017-Nov-24 03:30N 38°01' E 023°36'0 0.0
2017-Nov-24 03:00N 38°01' E 023°36'0 0.0
2017-Nov-24 02:30N 38°01' E 023°36'0 0.0
2017-Nov-24 02:00N 38°01' E 023°36'0 0.0
2017-Nov-24 01:30N 38°01' E 023°36'0 0.0
2017-Nov-24 01:00N 38°01' E 023°36'0 0.0
2017-Nov-24 00:30N 38°01' E 023°36'0 0.0
2017-Nov-24 00:00N 38°01' E 023°36'0 0.0
2017-Nov-23 23:30N 38°01' E 023°36'0 0.0
2017-Nov-23 23:00N 38°01' E 023°36'0 0.0
2017-Nov-23 22:30N 38°01' E 023°36'0 0.0
2017-Nov-23 22:00N 38°01' E 023°36'0 0.0
2017-Nov-23 21:30N 38°01' E 023°36'0 0.0
2017-Nov-23 21:00N 38°01' E 023°36'0 0.0
2017-Nov-23 20:30N 38°01' E 023°36'0 0.0
2017-Nov-23 20:00N 38°01' E 023°36'0 0.0
2017-Nov-23 19:30N 38°01' E 023°36'0 0.0
2017-Nov-23 19:00N 38°01' E 023°36'0 0.0
2017-Nov-23 18:30N 38°01' E 023°36'0 0.0
2017-Nov-23 18:00N 38°01' E 023°36'0 0.0
2017-Nov-23 17:30N 38°01' E 023°36'0 0.0
2017-Nov-23 17:01N 38°01' E 023°36'0 0.0
2017-Nov-23 16:30N 38°01' E 023°36'0 0.0
2017-Nov-23 16:00N 38°01' E 023°36'0 0.0
2017-Nov-23 15:30N 38°01' E 023°36'0 0.0
2017-Nov-23 15:00N 38°01' E 023°36'0 0.0
2017-Nov-23 14:30N 38°01' E 023°36'0 0.0
2017-Nov-23 14:00N 38°01' E 023°36'0 0.0
2017-Nov-23 13:30N 38°01' E 023°36'0 0.0
2017-Nov-23 13:00N 38°01' E 023°36'0 0.0
2017-Nov-23 12:30N 38°01' E 023°36'0 0.0
2017-Nov-23 12:00N 38°01' E 023°36'0 0.0
2017-Nov-23 11:30N 38°01' E 023°36'0 0.0
2017-Nov-23 11:00N 38°01' E 023°36'0 0.0
2017-Nov-23 10:30N 38°01' E 023°36'0 0.0
2017-Nov-23 10:00N 38°01' E 023°36'0 0.0
2017-Nov-23 09:30N 38°01' E 023°36'0 0.0
2017-Nov-23 08:57N 38°01' E 023°36'0 0.0
2017-Nov-23 08:30N 38°01' E 023°36'0 0.0
2017-Nov-23 08:00N 38°01' E 023°36'0 0.0
2017-Nov-23 07:30N 38°01' E 023°36'0 0.0
2017-Nov-23 07:00N 38°01' E 023°36'0 0.0
2017-Nov-23 06:30N 38°01' E 023°36'0 0.0
2017-Nov-23 05:59N 38°01' E 023°36'0 0.0
2017-Nov-23 05:30N 38°01' E 023°35'0 0.0
2017-Nov-23 05:00N 38°01' E 023°36'0 0.0
2017-Nov-23 03:44N 38°01' E 023°36'0 0.0
2017-Nov-23 03:30N 38°01' E 023°36'0 0.0
2017-Nov-23 02:59N 38°01' E 023°36'0 0.0
2017-Nov-23 02:31N 38°01' E 023°36'0 0.0
2017-Nov-23 02:00N 38°01' E 023°36'0 0.0
2017-Nov-23 01:31N 38°01' E 023°36'0 0.0
2017-Nov-23 00:34N 38°01' E 023°36'0 0.1
2017-Nov-23 00:30N 38°01' E 023°36'0 0.0
2017-Nov-23 00:00N 38°01' E 023°35'0 0.0
2017-Nov-22 23:30N 38°01' E 023°36'0 0.0
2017-Nov-22 23:00N 38°01' E 023°36'0 0.0
2017-Nov-22 22:27N 38°01' E 023°36'0 0.0
2017-Nov-22 22:00N 38°01' E 023°36'0 0.0
2017-Nov-22 21:30N 38°01' E 023°36'0 0.0
2017-Nov-22 21:00N 38°01' E 023°36'0 0.0
2017-Nov-22 20:30N 38°01' E 023°36'0 0.0
2017-Nov-22 20:00N 38°01' E 023°36'0 0.0
2017-Nov-22 19:31N 38°01' E 023°36'  
2017-Nov-18 23:09N 37°58' E 023°33'0 0.0
2017-Nov-18 23:00N 37°58' E 023°33'2 3.8
2017-Nov-18 22:30N 37°57' E 023°36'1 2.2
2017-Nov-18 22:00N 37°56' E 023°36'3 5.3
2017-Nov-18 21:30N 37°58' E 023°33'0 0.0
2017-Nov-18 21:00N 37°58' E 023°33'0 0.0
2017-Nov-18 20:30N 37°58' E 023°33'0 0.0
2017-Nov-18 20:00N 37°58' E 023°33'0 0.0
2017-Nov-18 19:30N 37°58' E 023°33'0 0.0
2017-Nov-18 19:00N 37°58' E 023°33'0 0.0
2017-Nov-18 18:30N 37°58' E 023°33'0 0.0
2017-Nov-18 18:00N 37°58' E 023°33'0 0.0
2017-Nov-18 17:30N 37°58' E 023°33'0 0.0
2017-Nov-18 17:00N 37°58' E 023°33'0 0.0
2017-Nov-18 16:30N 37°58' E 023°33'0 0.0
2017-Nov-18 16:01N 37°58' E 023°33'0 0.0
2017-Nov-18 15:30N 37°58' E 023°33'0 0.0
2017-Nov-18 15:00N 37°58' E 023°33'0 0.0
2017-Nov-18 14:30N 37°58' E 023°33'0 0.0
2017-Nov-18 14:00N 37°58' E 023°33'0 0.0
2017-Nov-18 13:30N 37°58' E 023°33'0 0.0
2017-Nov-18 13:00N 37°58' E 023°33'0 0.0
2017-Nov-18 12:30N 37°58' E 023°33'0 0.0
2017-Nov-18 12:00N 37°58' E 023°33'0 0.0
2017-Nov-18 11:30N 37°58' E 023°33'0 0.0
2017-Nov-18 11:00N 37°58' E 023°33'0 0.1
2017-Nov-18 10:29N 37°58' E 023°33'0 0.7
2017-Nov-18 10:00N 37°58' E 023°34'0 0.0
2017-Nov-18 09:30N 37°58' E 023°34'1 1.5
2017-Nov-18 09:00N 37°58' E 023°33'4 8.7
2017-Nov-18 08:30N 38°01' E 023°36'2 3.0
2017-Nov-18 08:00N 38°01' E 023°34'1 1.9
2017-Nov-18 07:30N 38°00' E 023°33'2 4.9
2017-Nov-18 07:00N 37°58' E 023°33'0 0.0
2017-Nov-18 06:30N 37°58' E 023°33'0 0.0
2017-Nov-18 06:00N 37°58' E 023°33'0 0.0
2017-Nov-18 05:28N 37°58' E 023°33'0 0.0
2017-Nov-18 04:59N 37°58' E 023°33'0 0.0
2017-Nov-18 04:28N 37°58' E 023°33'0 0.0
2017-Nov-16 12:14N 37°58' E 023°33'0 0.0
2017-Nov-16 12:00N 37°58' E 023°33'0 0.0
2017-Nov-16 11:30N 37°58' E 023°33'0 0.0
2017-Nov-16 11:00N 37°58' E 023°33'0 0.0
2017-Nov-16 10:31N 37°58' E 023°33'0 0.0
2017-Nov-16 10:00N 37°58' E 023°33'0 0.0
2017-Nov-16 09:30N 37°58' E 023°33'0 0.0
2017-Nov-16 09:00N 37°58' E 023°33'0 0.0
2017-Nov-16 08:30N 37°58' E 023°33'0 0.0
2017-Nov-16 08:00N 37°58' E 023°33'0 0.5
2017-Nov-16 07:30N 37°57' E 023°33'0 0.5
2017-Nov-16 07:00N 37°58' E 023°33'0 0.0
2017-Nov-16 06:30N 37°58' E 023°33'0 0.0
2017-Nov-15 10:42N 37°58' E 023°33'0 0.0
2017-Nov-15 10:30N 37°58' E 023°33'2 4.1
2017-Nov-15 10:00N 37°57' E 023°36'0 0.2
2017-Nov-15 09:30N 37°57' E 023°36'0 0.8
2017-Nov-15 09:00N 37°57' E 023°36'2 3.6
2017-Nov-15 08:30N 37°57' E 023°33'0 0.1
2017-Nov-15 08:00N 37°57' E 023°33'0 0.4
2017-Nov-15 07:30N 37°58' E 023°33'0 0.0
2017-Nov-15 07:00N 37°58' E 023°33'0 0.0
2017-Nov-15 06:30N 37°58' E 023°33'0 0.0
2017-Nov-15 06:00N 37°58' E 023°33'1 2.9
2017-Nov-15 05:30N 37°57' E 023°35'0 0.4
2017-Nov-15 05:00N 37°57' E 023°35'0 0.8
2017-Nov-15 04:30N 37°57' E 023°35'1 2.3
2017-Nov-15 04:00N 37°58' E 023°33'0 0.0
2017-Nov-14 10:22N 37°58' E 023°33'1 2.1
2017-Nov-14 10:00N 37°57' E 023°34'1 1.5
2017-Nov-14 09:30N 37°57' E 023°35'1 2.6
2017-Nov-14 09:01N 37°56' E 023°35'2 3.8
2017-Nov-14 08:30N 37°58' E 023°33'  

Dump ship's entire track history